createdAt,value
2022-09-06T00:00:56.401Z,19.75
2022-09-06T00:03:23.564Z,19.69
2022-09-06T00:05:51.063Z,19.67
2022-09-06T00:08:18.246Z,19.69
2022-09-06T00:10:45.094Z,19.63
2022-09-06T00:13:12.232Z,19.60
2022-09-06T00:15:39.651Z,19.59
2022-09-06T00:18:07.762Z,19.59
2022-09-06T00:20:35.288Z,19.59
2022-09-06T00:23:04.013Z,19.55
2022-09-06T00:25:31.208Z,19.52
2022-09-06T00:27:59.842Z,19.50
2022-09-06T00:30:27.249Z,19.57
2022-09-06T00:32:54.695Z,19.56
2022-09-06T00:35:22.320Z,19.57
2022-09-06T00:37:49.425Z,19.47
2022-09-06T00:40:16.581Z,19.43
2022-09-06T00:42:43.418Z,19.41
2022-09-06T00:45:11.834Z,19.40
2022-09-06T00:47:48.914Z,19.36
2022-09-06T00:50:17.941Z,19.33
2022-09-06T00:52:46.026Z,19.31
2022-09-06T00:55:13.108Z,19.30
2022-09-06T00:57:40.316Z,19.31
2022-09-06T01:00:08.539Z,19.30
2022-09-06T01:02:35.540Z,19.31
2022-09-06T01:05:03.364Z,19.28
2022-09-06T01:07:33.336Z,19.29
2022-09-06T01:10:06.441Z,19.29
2022-09-06T01:12:46.759Z,19.28
2022-09-06T01:15:16.622Z,19.35
2022-09-06T01:18:19.352Z,19.33
2022-09-06T01:20:51.681Z,19.29
2022-09-06T01:23:29.469Z,19.26
2022-09-06T01:26:05.175Z,19.31
2022-09-06T01:28:38.203Z,19.30
2022-09-06T01:31:25.007Z,19.30
2022-09-06T01:34:07.420Z,19.26
2022-09-06T01:37:09.441Z,19.24
2022-09-06T01:39:38.051Z,19.21
2022-09-06T01:42:16.046Z,19.21
2022-09-06T01:44:45.714Z,19.28
2022-09-06T01:47:17.475Z,19.21
2022-09-06T01:49:54.937Z,19.18
2022-09-06T01:52:26.423Z,19.23
2022-09-06T01:55:18.556Z,19.27
2022-09-06T01:57:55.243Z,19.26
2022-09-06T02:00:23.005Z,19.28
2022-09-06T02:02:49.996Z,19.32
2022-09-06T02:05:20.644Z,19.35
2022-09-06T02:07:49.368Z,19.42
2022-09-06T02:10:16.499Z,19.43
2022-09-06T02:12:45.108Z,19.48
2022-09-06T02:15:33.169Z,19.41
2022-09-06T02:18:03.001Z,19.48
2022-09-06T02:20:31.327Z,19.49
2022-09-06T02:23:01.793Z,19.46
2022-09-06T02:25:32.785Z,19.46
2022-09-06T02:28:00.002Z,19.40
2022-09-06T02:30:26.943Z,19.41
2022-09-06T02:32:57.459Z,19.32
2022-09-06T02:35:24.878Z,19.35
2022-09-06T02:37:52.243Z,19.41
2022-09-06T02:40:19.435Z,19.36
2022-09-06T02:42:46.568Z,19.33
2022-09-06T02:45:13.469Z,19.20
2022-09-06T02:47:40.486Z,19.13
2022-09-06T02:50:08.353Z,19.10
2022-09-06T02:52:35.156Z,19.00
2022-09-06T02:55:01.981Z,18.97
2022-09-06T02:57:30.439Z,18.97
2022-09-06T02:59:57.673Z,18.88
2022-09-06T03:02:24.643Z,18.87
2022-09-06T03:04:51.908Z,18.82
2022-09-06T03:07:18.904Z,18.82
2022-09-06T03:09:45.819Z,18.82
2022-09-06T03:12:12.990Z,18.78
2022-09-06T03:14:41.308Z,18.75
2022-09-06T03:17:08.352Z,18.71
2022-09-06T03:19:35.449Z,18.74
2022-09-06T03:22:02.328Z,18.68
2022-09-06T03:24:29.162Z,18.63
2022-09-06T03:26:56.275Z,18.66
2022-09-06T03:29:23.113Z,18.58
2022-09-06T03:31:49.920Z,18.56
2022-09-06T03:34:17.049Z,18.55
2022-09-06T03:36:43.879Z,18.54
2022-09-06T03:39:10.718Z,18.53
2022-09-06T03:41:38.532Z,18.48
2022-09-06T03:44:05.382Z,18.47
2022-09-06T03:46:32.204Z,18.39
2022-09-06T03:48:59.388Z,18.35
2022-09-06T03:51:26.237Z,18.37
2022-09-06T03:53:53.195Z,18.38
2022-09-06T03:56:20.349Z,18.38
2022-09-06T03:58:47.264Z,18.40
2022-09-06T04:01:14.237Z,18.37
2022-09-06T04:03:41.774Z,18.40
2022-09-06T04:06:08.788Z,18.32
2022-09-06T04:08:36.065Z,18.31
2022-09-06T04:11:03.694Z,18.34
2022-09-06T04:13:31.437Z,18.31
2022-09-06T04:15:58.612Z,18.29
2022-09-06T04:18:26.434Z,18.27
2022-09-06T04:20:54.582Z,18.28
2022-09-06T04:23:21.898Z,18.24
2022-09-06T04:25:50.988Z,18.22
2022-09-06T04:28:18.731Z,18.21
2022-09-06T04:30:46.077Z,18.22
2022-09-06T04:33:13.132Z,18.30
2022-09-06T04:35:40.801Z,18.28
2022-09-06T04:38:07.654Z,18.30
2022-09-06T04:40:34.443Z,18.35
2022-09-06T04:43:01.605Z,18.39
2022-09-06T04:45:28.585Z,18.38
2022-09-06T04:47:55.567Z,18.40
2022-09-06T04:50:22.899Z,18.42
2022-09-06T04:52:49.748Z,18.49
2022-09-06T04:55:16.622Z,18.61
2022-09-06T04:57:47.455Z,18.64
2022-09-06T05:00:14.605Z,18.74
2022-09-06T05:02:41.492Z,18.87
2022-09-06T05:05:08.818Z,18.79
2022-09-06T05:07:35.731Z,18.87
2022-09-06T05:10:02.650Z,18.94
2022-09-06T05:12:29.891Z,18.94
2022-09-06T05:14:56.828Z,19.11
2022-09-06T05:17:23.765Z,19.09
2022-09-06T05:19:51.144Z,19.14
2022-09-06T05:22:18.078Z,19.24
2022-09-06T05:24:45.109Z,19.21
2022-09-06T05:27:36.502Z,19.28
2022-09-06T05:30:04.757Z,19.48
2022-09-06T05:32:32.283Z,19.43
2022-09-06T05:34:59.183Z,19.61
2022-09-06T05:37:26.504Z,19.46
2022-09-06T05:39:53.435Z,19.49
2022-09-06T05:42:20.523Z,19.67
2022-09-06T05:44:48.922Z,19.71
2022-09-06T05:47:15.742Z,20.00
2022-09-06T05:49:42.568Z,19.98
2022-09-06T05:52:09.662Z,20.24
2022-09-06T05:54:36.461Z,20.22
2022-09-06T05:57:03.369Z,20.29
2022-09-06T05:59:33.057Z,20.63
2022-09-06T06:02:00.989Z,20.92
2022-09-06T06:04:29.377Z,20.86
2022-09-06T06:06:56.634Z,20.83
2022-09-06T06:09:23.565Z,20.99
2022-09-06T06:11:50.532Z,21.06
2022-09-06T06:14:17.745Z,20.93
2022-09-06T06:16:50.510Z,20.69
2022-09-06T06:19:17.754Z,20.83
2022-09-06T06:21:44.732Z,20.57
2022-09-06T06:24:11.686Z,20.45
2022-09-06T06:26:39.023Z,20.34
2022-09-06T06:29:08.268Z,20.43
2022-09-06T06:31:35.948Z,20.25
2022-09-06T06:34:04.164Z,20.26
2022-09-06T06:36:31.874Z,20.48
2022-09-06T06:38:59.220Z,20.51
2022-09-06T06:41:27.775Z,20.33
2022-09-06T06:43:55.827Z,20.60
2022-09-06T06:46:23.725Z,20.52
2022-09-06T06:48:54.656Z,20.36
2022-09-06T06:51:23.527Z,20.41
2022-09-06T06:53:52.283Z,20.22
2022-09-06T06:56:32.950Z,20.19
2022-09-06T06:59:00.912Z,20.30
2022-09-06T07:01:29.534Z,20.40
2022-09-06T07:03:58.517Z,20.51
2022-09-06T07:09:16.271Z,21.70
2022-09-06T07:11:43.400Z,22.13
2022-09-06T07:14:10.226Z,22.88
2022-09-06T07:16:37.579Z,22.59
2022-09-06T07:19:04.601Z,22.55
2022-09-06T07:21:38.996Z,22.42
2022-09-06T07:24:08.725Z,22.38
2022-09-06T07:26:37.731Z,22.26
2022-09-06T07:29:05.616Z,22.66
2022-09-06T07:34:20.997Z,22.91
2022-09-06T07:36:48.654Z,23.05
2022-09-06T07:39:15.636Z,23.02
2022-09-06T07:41:42.867Z,23.10
2022-09-06T07:44:10.368Z,23.12
2022-09-06T07:46:37.559Z,23.47
2022-09-06T07:49:05.335Z,23.60
2022-09-06T07:51:32.787Z,23.85
2022-09-06T07:54:26.234Z,24.20
2022-09-06T07:56:47.402Z,24.09
2022-09-06T07:59:14.630Z,24.33
2022-09-06T08:01:41.900Z,24.35
2022-09-06T08:04:10.458Z,24.55
2022-09-06T08:09:25.909Z,25.23
2022-09-06T08:11:52.955Z,25.37
2022-09-06T08:14:20.468Z,25.58
2022-09-06T08:16:47.825Z,25.35
2022-09-06T08:19:14.812Z,25.10
2022-09-06T08:21:41.822Z,25.07
2022-09-06T08:24:12.323Z,24.89
2022-09-06T08:26:45.628Z,25.13
2022-09-06T08:29:13.368Z,25.33
2022-09-06T08:31:41.527Z,24.85
2022-09-06T08:34:08.504Z,25.06
2022-09-06T08:36:35.856Z,25.36
2022-09-06T08:39:04.808Z,24.96
2022-09-06T08:41:32.663Z,24.67
2022-09-06T08:47:12.013Z,25.25
2022-09-06T08:49:45.059Z,25.33
2022-09-06T08:52:22.028Z,25.33
2022-09-06T08:55:04.818Z,25.33
2022-09-06T08:57:40.750Z,25.57
2022-09-06T09:00:11.535Z,25.29
2022-09-06T09:02:44.611Z,25.05
2022-09-06T09:05:16.247Z,24.95
2022-09-06T09:07:45.076Z,24.77
2022-09-06T09:10:22.017Z,24.86
2022-09-06T09:12:49.043Z,24.67
2022-09-06T09:15:17.796Z,24.94
2022-09-06T09:17:45.668Z,25.35
2022-09-06T09:20:12.995Z,25.52
2022-09-06T09:22:40.499Z,25.42
2022-09-06T09:25:08.109Z,25.35
2022-09-06T09:27:36.274Z,25.02
2022-09-06T09:32:53.036Z,25.12
2022-09-06T09:35:20.482Z,25.08
2022-09-06T09:37:51.058Z,25.17
2022-09-06T09:40:25.949Z,25.04
2022-09-06T09:42:54.789Z,24.96
2022-09-06T09:45:25.006Z,24.96
2022-09-06T09:47:52.037Z,24.91
2022-09-06T09:50:32.813Z,24.80
2022-09-06T09:53:14.496Z,24.50
2022-09-06T09:55:42.096Z,24.48
2022-09-06T09:58:18.638Z,24.56
2022-09-06T10:00:45.583Z,24.62
2022-09-06T10:03:14.977Z,24.74
2022-09-06T10:05:42.118Z,24.84
2022-09-06T10:08:13.267Z,25.00
2022-09-06T10:10:42.504Z,25.26
2022-09-06T10:13:21.546Z,25.46
2022-09-06T10:15:49.634Z,25.69
2022-09-06T10:18:16.562Z,25.85
2022-09-06T10:20:55.316Z,25.91
2022-09-06T10:26:31.775Z,26.23
2022-09-06T10:29:05.904Z,26.40
2022-09-06T10:31:36.850Z,26.38
2022-09-06T10:34:19.497Z,26.49
2022-09-06T10:36:49.403Z,26.50
2022-09-06T10:39:25.618Z,26.48
2022-09-06T10:42:10.082Z,26.47
2022-09-06T10:44:37.262Z,26.49
2022-09-06T10:47:16.717Z,26.47
2022-09-06T10:49:49.702Z,26.51
2022-09-06T10:52:20.163Z,26.51
2022-09-06T10:54:47.549Z,26.54
2022-09-06T11:00:05.873Z,26.73
2022-09-06T11:10:55.807Z,27.86
2022-09-06T11:13:24.815Z,27.83
2022-09-06T11:16:01.452Z,27.66
2022-09-06T11:18:41.851Z,27.60
2022-09-06T11:21:08.710Z,27.58
2022-09-06T11:23:50.919Z,27.83
2022-09-06T11:26:21.155Z,28.02
2022-09-06T11:28:58.941Z,27.98
2022-09-06T11:34:22.729Z,28.07
2022-09-06T11:36:51.430Z,27.97
2022-09-06T11:42:50.757Z,27.67
2022-09-06T11:45:21.852Z,27.40
2022-09-06T11:47:50.058Z,27.36
2022-09-06T11:50:20.196Z,27.40
2022-09-06T11:52:57.168Z,27.36
2022-09-06T11:55:29.802Z,27.36
2022-09-06T11:57:57.977Z,27.43
2022-09-06T12:00:25.763Z,27.18
2022-09-06T12:02:53.270Z,27.02
2022-09-06T12:05:28.969Z,27.12
2022-09-06T12:08:11.214Z,27.21
2022-09-06T12:10:40.898Z,27.34
2022-09-06T12:13:26.829Z,27.38
2022-09-06T12:15:55.255Z,27.30
2022-09-06T12:18:41.355Z,27.30
2022-09-06T12:21:08.323Z,27.36
2022-09-06T12:23:35.877Z,26.94
2022-09-06T12:26:03.757Z,27.03
2022-09-06T12:28:49.882Z,27.07
2022-09-06T12:31:23.574Z,27.32
2022-09-06T12:33:51.277Z,27.04
2022-09-06T12:36:20.193Z,26.93
2022-09-06T12:39:00.459Z,26.67
2022-09-06T12:41:29.778Z,26.46
2022-09-06T12:43:58.900Z,26.22
2022-09-06T12:46:27.150Z,25.78
2022-09-06T12:49:09.318Z,25.52
2022-09-06T12:51:37.525Z,25.44
2022-09-06T12:54:06.157Z,25.31
2022-09-06T12:56:34.485Z,25.19
2022-09-06T12:59:15.413Z,25.29
2022-09-06T13:01:46.599Z,25.32
2022-09-06T13:04:34.792Z,25.42
2022-09-06T13:07:03.212Z,25.52
2022-09-06T13:09:31.137Z,25.65
2022-09-06T13:12:06.646Z,25.77
2022-09-06T13:14:34.265Z,26.01
2022-09-06T13:17:01.337Z,25.72
2022-09-06T13:19:38.644Z,25.98
2022-09-06T13:22:07.680Z,25.71
2022-09-06T13:24:34.511Z,25.42
2022-09-06T13:27:21.279Z,24.93
2022-09-06T13:30:08.784Z,24.65
2022-09-06T13:32:42.967Z,24.75
2022-09-06T13:35:10.417Z,24.62
2022-09-06T13:37:40.918Z,24.52
2022-09-06T13:40:59.921Z,24.70
2022-09-06T13:43:28.272Z,24.43
2022-09-06T13:46:06.432Z,24.65
2022-09-06T13:48:34.213Z,24.40
2022-09-06T13:51:01.107Z,24.48
2022-09-06T13:53:28.213Z,24.30
2022-09-06T13:55:56.419Z,24.20
2022-09-06T13:58:23.344Z,24.25
2022-09-06T14:00:50.552Z,24.19
2022-09-06T14:03:22.886Z,24.27
2022-09-06T14:05:49.802Z,24.26
2022-09-06T14:08:17.369Z,24.51
2022-09-06T14:10:46.286Z,24.38
2022-09-06T14:13:15.668Z,24.38
2022-09-06T14:15:43.210Z,24.61
2022-09-06T14:18:14.220Z,24.89
2022-09-06T14:20:42.311Z,24.68
2022-09-06T14:23:09.857Z,24.40
2022-09-06T14:25:37.212Z,24.37
2022-09-06T14:28:04.800Z,24.37
2022-09-06T14:30:34.809Z,24.41
2022-09-06T14:33:01.656Z,24.55
2022-09-06T14:35:28.685Z,24.43
2022-09-06T14:37:55.818Z,24.48
2022-09-06T14:40:22.733Z,24.62
2022-09-06T14:42:50.636Z,24.50
2022-09-06T14:45:18.735Z,24.49
2022-09-06T14:47:45.822Z,24.55
2022-09-06T14:50:12.770Z,24.68
2022-09-06T14:52:39.947Z,24.53
2022-09-06T14:55:07.117Z,24.46
2022-09-06T14:57:36.175Z,24.44
2022-09-06T15:00:07.629Z,24.40
2022-09-06T15:02:35.179Z,24.44
2022-09-06T15:05:02.743Z,24.41
2022-09-06T15:07:31.853Z,24.41
2022-09-06T15:09:59.203Z,24.35
2022-09-06T15:12:26.181Z,24.38
2022-09-06T15:14:54.762Z,24.25
2022-09-06T15:17:21.687Z,24.24
2022-09-06T15:19:50.015Z,24.18
2022-09-06T15:22:17.212Z,24.17
2022-09-06T15:24:44.148Z,24.27
2022-09-06T15:27:11.001Z,24.28
2022-09-06T15:29:38.497Z,24.21
2022-09-06T15:32:05.614Z,24.19
2022-09-06T15:34:32.822Z,24.10
2022-09-06T15:37:00.434Z,24.05
2022-09-06T15:39:27.490Z,24.01
2022-09-06T15:41:57.154Z,24.11
2022-09-06T15:44:24.301Z,23.95
2022-09-06T15:46:52.380Z,24.04
2022-09-06T15:49:27.627Z,23.90
2022-09-06T15:51:56.345Z,23.90
2022-09-06T15:54:41.888Z,23.87
2022-09-06T15:57:09.240Z,23.86
2022-09-06T15:59:36.513Z,23.83
2022-09-06T16:02:03.549Z,23.78
2022-09-06T16:04:31.260Z,23.79
2022-09-06T16:06:58.395Z,23.78
2022-09-06T16:09:26.442Z,23.77
2022-09-06T16:11:58.547Z,23.73
2022-09-06T16:14:28.825Z,23.73
2022-09-06T16:16:57.626Z,23.73
2022-09-06T16:19:27.580Z,23.70
2022-09-06T16:21:55.649Z,23.69
2022-09-06T16:24:24.253Z,23.67
2022-09-06T16:26:51.221Z,23.69
2022-09-06T16:29:19.215Z,23.61
2022-09-06T16:31:48.759Z,23.55
2022-09-06T16:34:17.835Z,23.53
2022-09-06T16:36:45.262Z,23.53
2022-09-06T16:39:14.225Z,23.44
2022-09-06T16:41:43.129Z,23.47
2022-09-06T16:44:14.577Z,23.47
2022-09-06T16:46:42.588Z,23.41
2022-09-06T16:49:10.048Z,23.38
2022-09-06T16:51:37.332Z,23.31
2022-09-06T16:54:04.812Z,23.33
2022-09-06T16:56:34.942Z,23.22
2022-09-06T16:59:04.188Z,23.20
2022-09-06T17:01:32.805Z,23.12
2022-09-06T17:04:04.776Z,23.06
2022-09-06T17:06:33.314Z,22.99
2022-09-06T17:09:01.917Z,22.95
2022-09-06T17:11:32.060Z,22.98
2022-09-06T17:13:59.933Z,22.88
2022-09-06T17:16:45.648Z,22.78
2022-09-06T17:19:14.090Z,22.72
2022-09-06T17:21:41.375Z,22.68
2022-09-06T17:24:08.970Z,22.64
2022-09-06T17:26:38.573Z,22.58
2022-09-06T17:29:06.201Z,22.55
2022-09-06T17:31:34.209Z,22.44
2022-09-06T17:34:03.132Z,22.45
2022-09-06T17:36:31.949Z,22.43
2022-09-06T17:39:17.800Z,22.38
2022-09-06T17:41:46.637Z,22.40
2022-09-06T17:44:15.213Z,22.24
2022-09-06T17:46:57.046Z,22.14
2022-09-06T17:49:27.254Z,21.99
2022-09-06T17:51:54.460Z,21.93
2022-09-06T17:54:21.640Z,21.82
2022-09-06T17:56:50.313Z,21.74
2022-09-06T17:59:17.667Z,21.72
2022-09-06T18:01:46.615Z,21.51
2022-09-06T18:04:14.730Z,21.40
2022-09-06T18:06:43.290Z,21.35
2022-09-06T18:09:11.606Z,21.37
2022-09-06T18:11:40.175Z,21.30
2022-09-06T18:14:08.982Z,21.18
2022-09-06T18:16:37.260Z,21.07
2022-09-06T18:19:05.811Z,21.01
2022-09-06T18:21:34.829Z,21.00
2022-09-06T18:24:02.415Z,20.98
2022-09-06T18:26:30.762Z,20.85
2022-09-06T18:28:59.362Z,20.86
2022-09-06T18:31:29.760Z,20.76
2022-09-06T18:33:59.082Z,20.73
2022-09-06T18:36:31.154Z,20.72
2022-09-06T18:39:05.258Z,20.79
2022-09-06T18:41:52.147Z,20.65
2022-09-06T18:44:22.652Z,20.60
2022-09-06T18:46:50.410Z,20.61
2022-09-06T18:49:21.222Z,20.57
2022-09-06T18:51:49.938Z,20.57
2022-09-06T18:54:18.259Z,20.54
2022-09-06T18:56:45.873Z,20.52
2022-09-06T18:59:14.368Z,20.51
2022-09-06T19:01:43.447Z,20.50
2022-09-06T19:04:11.607Z,20.44
2022-09-06T19:06:41.099Z,20.40
2022-09-06T19:09:10.325Z,20.38
2022-09-06T19:11:37.888Z,20.41
2022-09-06T19:14:05.959Z,20.33
2022-09-06T19:16:33.820Z,20.33
2022-09-06T19:19:02.679Z,20.27
2022-09-06T19:21:36.600Z,20.28
2022-09-06T19:24:10.390Z,20.26
2022-09-06T19:26:40.162Z,20.22
2022-09-06T19:29:09.261Z,20.19
2022-09-06T19:31:38.329Z,20.16
2022-09-06T19:34:07.622Z,20.18
2022-09-06T19:36:37.656Z,20.13
2022-09-06T19:39:08.210Z,20.14
2022-09-06T19:41:38.752Z,20.13
2022-09-06T19:44:08.708Z,20.09
2022-09-06T19:46:37.317Z,20.11
2022-09-06T19:49:05.332Z,20.06
2022-09-06T19:51:33.260Z,20.10
2022-09-06T19:54:00.371Z,20.04
2022-09-06T19:56:30.486Z,20.05
2022-09-06T19:58:59.077Z,19.99
2022-09-06T20:01:29.361Z,19.99
2022-09-06T20:03:57.715Z,19.94
2022-09-06T20:06:25.011Z,19.92
2022-09-06T20:08:53.046Z,19.90
2022-09-06T20:11:21.248Z,19.80
2022-09-06T20:13:48.558Z,19.86
2022-09-06T20:16:20.210Z,19.83
2022-09-06T20:18:48.566Z,19.84
2022-09-06T20:21:17.974Z,19.83
2022-09-06T20:23:49.008Z,19.84
2022-09-06T20:26:16.971Z,19.79
2022-09-06T20:28:44.716Z,19.78
2022-09-06T20:31:16.882Z,19.80
2022-09-06T20:33:49.312Z,19.76
2022-09-06T20:36:17.468Z,19.76
2022-09-06T20:38:45.196Z,19.70
2022-09-06T20:41:15.446Z,19.72
2022-09-06T20:43:42.775Z,19.70
2022-09-06T20:46:11.653Z,19.67
2022-09-06T20:48:44.163Z,19.64
2022-09-06T20:51:13.349Z,19.64
2022-09-06T20:53:43.368Z,19.56
2022-09-06T20:56:12.221Z,19.60
2022-09-06T20:58:39.704Z,19.58
2022-09-06T21:01:08.735Z,19.58
2022-09-06T21:03:40.169Z,19.56
2022-09-06T21:06:08.949Z,19.50
2022-09-06T21:08:41.849Z,19.50
2022-09-06T21:11:10.662Z,19.47
2022-09-06T21:13:40.221Z,19.43
2022-09-06T21:16:07.732Z,19.41
2022-09-06T21:18:35.864Z,19.45
2022-09-06T21:21:04.528Z,19.44
2022-09-06T21:23:33.416Z,19.42
2022-09-06T21:26:02.371Z,19.40
2022-09-06T21:28:30.761Z,19.37
2022-09-06T21:31:04.091Z,19.36
2022-09-06T21:33:33.310Z,19.34
2022-09-06T21:36:07.152Z,19.32
2022-09-06T21:38:35.522Z,19.30
2022-09-06T21:41:05.375Z,19.29
2022-09-06T21:43:32.805Z,19.28
2022-09-06T21:46:04.202Z,19.19
2022-09-06T21:48:33.391Z,19.24
2022-09-06T21:51:01.348Z,19.25
2022-09-06T21:53:30.319Z,19.25
2022-09-06T21:56:16.901Z,19.22
2022-09-06T21:59:09.818Z,19.25
2022-09-06T22:01:38.706Z,19.23
2022-09-06T22:04:06.554Z,19.21
2022-09-06T22:06:36.030Z,19.18
2022-09-06T22:09:08.140Z,19.17
2022-09-06T22:11:38.095Z,19.16
2022-09-06T22:14:07.136Z,19.16
2022-09-06T22:16:35.620Z,19.15
2022-09-06T22:19:05.110Z,19.13
2022-09-06T22:21:33.603Z,19.11
2022-09-06T22:24:04.484Z,19.11
2022-09-06T22:26:35.955Z,19.09
2022-09-06T22:29:04.497Z,19.10
2022-09-06T22:31:33.193Z,19.09
2022-09-06T22:34:04.290Z,19.09
2022-09-06T22:36:31.892Z,19.06
2022-09-06T22:39:00.203Z,19.06
2022-09-06T22:41:28.501Z,19.06
2022-09-06T22:43:56.777Z,19.03
2022-09-06T22:46:27.447Z,19.02
2022-09-06T22:48:54.860Z,18.98
2022-09-06T22:51:22.394Z,18.95
2022-09-06T22:53:50.675Z,18.91
2022-09-06T22:56:18.315Z,18.88
2022-09-06T22:58:45.393Z,18.84
2022-09-06T23:01:14.459Z,18.83
2022-09-06T23:03:44.290Z,18.81
2022-09-06T23:06:11.705Z,18.76
2022-09-06T23:08:40.251Z,18.74
2022-09-06T23:11:09.139Z,18.68
2022-09-06T23:13:38.172Z,18.64
2022-09-06T23:16:08.460Z,18.65
2022-09-06T23:18:35.773Z,18.60
2022-09-06T23:21:06.405Z,18.58
2022-09-06T23:23:39.329Z,18.58
2022-09-06T23:26:11.412Z,18.52
2022-09-06T23:28:39.833Z,18.52
2022-09-06T23:31:12.517Z,18.52
2022-09-06T23:33:42.268Z,18.53
2022-09-06T23:36:12.220Z,18.46
2022-09-06T23:38:41.197Z,18.45
2022-09-06T23:41:10.825Z,18.40
2022-09-06T23:43:39.652Z,18.42
2022-09-06T23:46:07.181Z,18.42
2022-09-06T23:48:35.963Z,18.39
2022-09-06T23:51:04.305Z,18.36
2022-09-06T23:53:31.958Z,18.34
2022-09-06T23:56:00.562Z,18.33
2022-09-06T23:58:27.559Z,18.30
